Time;durP1;ratioP1;P1;durP2;ratioP2;P2;SDS_P1;SDS_P2;PMS_P1;PMS_P2;Temp;Humidity;BMP_temperature;BMP_pressure;BME280_temperature;BME280_humidity;BME280_pressure;Samples;Min_cycle;Max_cycle;Signal;HPM_P1;HPM_P2
2023/11/22 00:02:03;;;;;;;;;;;;;;;-144.99;100.00;52690.66;5008298;28;19996;-71
2023/11/22 00:04:29;;;;;;;;;;;;;;;-144.99;100.00;52676.38;5001168;28;20007;-71
2023/11/22 00:06:56;;;;;;;;;;;;;;;-144.99;100.00;52676.38;5006430;28;20478;-71
2023/11/22 00:09:23;;;;;;;;;;;;;;;-144.99;100.00;52682.50;5011319;28;19937;-71
2023/11/22 00:11:49;;;;;;;;;;;;;;;-144.99;100.00;52702.88;5010227;28;19929;-72
2023/11/22 00:14:16;;;;;;;;;;;;;;;-144.99;100.00;52651.94;5011392;28;20013;-71
2023/11/22 00:16:44;;;;;;;;;;;;;;;-144.99;100.00;52692.69;5010823;28;20579;-71
2023/11/22 00:19:10;;;;;;;;;;;;;;;-144.99;100.00;52717.16;5008754;28;19976;-71
2023/11/22 00:21:37;;;;;;;;;;;;;;;-144.99;100.00;52680.47;5011165;28;19955;-66
2023/11/22 00:24:04;;;;;;;;;;;;;;;-144.99;100.00;52690.66;5011033;28;20224;-66
2023/11/22 00:26:32;;;;;;;;;;;;;;;-144.99;100.00;52668.22;5014527;28;20334;-63
2023/11/22 00:28:58;;;;;;;;;;;;;;;-144.99;100.00;52664.16;5007904;28;20041;-63
2023/11/22 00:31:25;;;;;;;;;;;;;;;-144.99;100.00;52656.00;5010918;28;20457;-63
2023/11/22 00:33:53;;;;;;;;;;;;;;;-144.99;100.00;52658.03;5011334;28;20008;-66
2023/11/22 00:36:19;;;;;;;;;;;;;;;-144.99;100.00;52682.50;5011981;28;19930;-67
2023/11/22 00:38:46;;;;;;;;;;;;;;;-144.99;100.00;52668.22;5006437;28;19955;-66
2023/11/22 00:41:14;;;;;;;;;;;;;;;-144.99;100.00;52672.31;5008137;28;19976;-66
2023/11/22 00:43:40;;;;;;;;;;;;;;;-144.99;100.00;52664.16;5011004;28;19936;-63
2023/11/22 00:46:06;;;;;;;;;;;;;;;-144.99;100.00;52688.63;5010869;28;19984;-65
2023/11/22 00:48:32;;;;;;;;;;;;;;;-144.99;100.00;52688.63;5011019;28;19925;-65
2023/11/22 00:51:00;;;;;;;;;;;;;;;-144.99;100.00;52692.69;5006803;28;19942;-64
2023/11/22 00:53:27;;;;;;;;;;;;;;;-144.99;100.00;52713.09;5006906;28;20380;-64
2023/11/22 00:55:53;;;;;;;;;;;;;;;-144.99;100.00;52660.09;5010725;28;19925;-63
2023/11/22 00:58:20;;;;;;;;;;;;;;;-144.99;100.00;52721.22;5004162;28;20310;-64
2023/11/22 01:00:46;;;;;;;;;;;;;;;-144.99;100.00;52721.22;5006480;28;19987;-68
2023/11/22 01:03:13;;;;;;;;;;;;;;;-144.99;100.00;52704.94;4999613;28;19968;-68
2023/11/22 01:05:42;;;;;;;;;;;;;;;-144.99;100.00;52678.44;5008205;28;19973;-67
2023/11/22 01:08:10;;;;;;;;;;;;;;;-144.99;100.00;52704.94;5005815;28;20008;-68
2023/11/22 01:10:36;;;;;;;;;;;;;;;-144.99;100.00;52696.78;5007321;28;19968;-68
2023/11/22 01:13:04;;;;;;;;;;;;;;;-144.99;100.00;52676.38;5010055;28;19936;-67
2023/11/22 01:15:30;;;;;;;;;;;;;;;-144.99;100.00;52676.38;5004291;28;19965;-68
2023/11/22 01:17:57;;;;;;;;;;;;;;;-144.99;100.00;52672.31;5008585;28;19925;-68
2023/11/22 01:20:24;;;;;;;;;;;;;;;-144.99;100.00;52692.69;5010083;28;20015;-67
2023/11/22 01:22:50;;;;;;;;;;;;;;;-144.99;100.00;52709.00;5007722;28;19961;-70
2023/11/22 01:25:19;;;;;;;;;;;;;;;-144.99;100.00;52684.53;5004193;28;19972;-69
2023/11/22 01:27:45;;;;;;;;;;;;;;;-144.99;100.00;52660.09;5000670;28;20416;-69
2023/11/22 01:30:12;;;;;;;;;;;;;;;-144.99;100.00;52684.53;5006308;28;20687;-69
2023/11/22 01:32:38;;;;;;;;;;;;;;;-144.99;100.00;52688.63;5008691;28;20272;-67
2023/11/22 01:35:06;;;;;;;;;;;;;;;-144.99;100.00;52674.34;5009187;28;19926;-69
2023/11/22 01:37:32;;;;;;;;;;;;;;;-144.99;100.00;52700.84;5002536;28;19988;-70
2023/11/22 01:39:59;;;;;;;;;;;;;;;-144.99;100.00;52700.84;5009722;28;20305;-68
2023/11/22 01:42:27;;;;;;;;;;;;;;;-144.99;100.00;52717.16;4990004;28;19969;-68
2023/11/22 01:44:53;;;;;;;;;;;;;;;-144.99;100.00;52670.28;5010609;28;20445;-69
2023/11/22 01:47:20;;;;;;;;;;;;;;;-144.99;100.00;52684.53;4997147;28;20013;-70
2023/11/22 01:49:47;;;;;;;;;;;;;;;-144.99;100.00;52670.28;5015030;28;20356;-67
2023/11/22 01:52:14;;;;;;;;;;;;;;;-144.99;100.00;52713.09;5010013;28;20340;-67
2023/11/22 01:54:42;;;;;;;;;;;;;;;-144.99;100.00;52680.47;5014033;28;19941;-67
2023/11/22 01:57:09;;;;;;;;;;;;;;;-144.99;100.00;52647.84;5021710;28;19936;-69
2023/11/22 01:59:39;;;;;;;;;;;;;;;-144.99;100.00;52725.31;5019957;28;19926;-68
2023/11/22 02:02:05;;;;;;;;;;;;;;;-144.99;100.00;52717.16;5015819;28;20348;-68
2023/11/22 02:04:31;;;;;;;;;;;;;;;-144.99;100.00;52656.00;5014110;28;19932;-68
2023/11/22 02:06:58;;;;;;;;;;;;;;;-144.99;100.00;52725.31;5016022;28;20020;-68
2023/11/22 02:09:24;;;;;;;;;;;;;;;-144.99;100.00;52711.03;5006723;28;19926;-69
2023/11/22 02:11:51;;;;;;;;;;;;;;;-144.99;100.00;52696.78;5015172;28;19929;-72
2023/11/22 02:14:18;;;;;;;;;;;;;;;-144.99;100.00;52684.53;5016198;28;20394;-69
2023/11/22 02:16:46;;;;;;;;;;;;;;;-144.99;100.00;52733.47;5012644;28;19929;-67
2023/11/22 02:19:15;;;;;;;;;;;;;;;-144.99;100.00;52700.84;5014684;28;20258;-68
2023/11/22 02:21:41;;;;;;;;;;;;;;;-144.99;100.00;52696.78;5014096;28;20020;-67
2023/11/22 02:24:10;;;;;;;;;;;;;;;-144.99;100.00;52688.63;5012357;28;19971;-66
2023/11/22 02:26:36;;;;;;;;;;;;;;;-144.99;100.00;52656.00;5011331;28;19980;-68
2023/11/22 02:29:04;;;;;;;;;;;;;;;-144.99;100.00;52706.97;5010723;28;19983;-68
2023/11/22 02:31:30;;;;;;;;;;;;;;;-144.99;100.00;52700.84;5013374;28;19929;-66
2023/11/22 02:33:56;;;;;;;;;;;;;;;-144.99;100.00;52676.38;5008808;28;20342;-65
2023/11/22 02:36:24;;;;;;;;;;;;;;;-144.99;100.00;52741.63;5008134;28;20372;-65
2023/11/22 02:38:51;;;;;;;;;;;;;;;-144.99;100.00;52686.59;5006949;28;20411;-64
2023/11/22 02:41:19;;;;;;;;;;;;;;;-144.99;100.00;52658.03;5009204;28;19969;-64
2023/11/22 02:43:46;;;;;;;;;;;;;;;-144.99;100.00;52696.78;5001820;28;19975;-66
2023/11/22 02:46:12;;;;;;;;;;;;;;;-144.99;100.00;52715.13;5008809;28;19962;-66
2023/11/22 02:48:39;;;;;;;;;;;;;;;-144.99;100.00;52717.16;5006500;28;20343;-66
2023/11/22 02:51:06;;;;;;;;;;;;;;;-144.99;100.00;52668.22;5008274;28;19939;-66
2023/11/22 02:53:33;;;;;;;;;;;;;;;-144.99;100.00;52690.66;5009155;28;20177;-66
2023/11/22 02:56:00;;;;;;;;;;;;;;;-144.99;100.00;52696.78;5008909;28;20473;-66
2023/11/22 02:58:28;;;;;;;;;;;;;;;-144.99;100.00;52696.78;5008213;28;20023;-66
2023/11/22 03:00:57;;;;;;;;;;;;;;;-144.99;100.00;52725.31;5006254;28;19969;-66
2023/11/22 03:03:23;;;;;;;;;;;;;;;-144.99;100.00;52676.38;5008249;28;20287;-66
2023/11/22 03:05:50;;;;;;;;;;;;;;;-144.99;100.00;52668.22;5005162;28;19926;-70
2023/11/22 03:08:17;;;;;;;;;;;;;;;-144.99;100.00;52676.38;5003945;28;19979;-68
2023/11/22 03:10:43;;;;;;;;;;;;;;;-144.99;100.00;52690.66;5006356;28;19929;-68
2023/11/22 03:13:10;;;;;;;;;;;;;;;-144.99;100.00;52700.84;5008340;28;19936;-68
2023/11/22 03:15:38;;;;;;;;;;;;;;;-144.99;100.00;52664.16;5009085;28;20028;-68
2023/11/22 03:18:06;;;;;;;;;;;;;;;-144.99;100.00;52709.00;5007681;28;20276;-69
2023/11/22 03:20:32;;;;;;;;;;;;;;;-144.99;100.00;52704.94;5006987;28;20438;-69
2023/11/22 03:22:59;;;;;;;;;;;;;;;-144.99;100.00;52733.47;5009427;28;19957;-68
2023/11/22 03:25:26;;;;;;;;;;;;;;;-144.99;100.00;52713.09;5009301;28;19949;-67
2023/11/22 03:27:53;;;;;;;;;;;;;;;-144.99;100.00;52639.69;5014238;28;20028;-67
2023/11/22 03:30:19;;;;;;;;;;;;;;;-144.99;100.00;52709.00;5013927;28;20276;-67
2023/11/22 03:32:48;;;;;;;;;;;;;;;-144.99;100.00;52723.28;5014056;28;20289;-67
2023/11/22 03:35:14;;;;;;;;;;;;;;;-144.99;100.00;52713.09;5015245;28;20040;-66
2023/11/22 03:37:41;;;;;;;;;;;;;;;-144.99;100.00;52688.63;5012797;28;20227;-68
2023/11/22 03:40:08;;;;;;;;;;;;;;;-144.99;100.00;52704.94;5011796;28;20481;-68
2023/11/22 03:42:37;;;;;;;;;;;;;;;-144.99;100.00;52717.16;5005239;28;19925;-68
2023/11/22 03:45:03;;;;;;;;;;;;;;;-144.99;100.00;52717.16;5012164;28;20429;-62
2023/11/22 03:47:31;;;;;;;;;;;;;;;-144.99;100.00;52682.50;5012184;28;19991;-62
2023/11/22 03:49:59;;;;;;;;;;;;;;;-144.99;100.00;52690.66;5012095;28;20012;-62
2023/11/22 03:52:26;;;;;;;;;;;;;;;-144.99;100.00;52709.00;5009673;28;20172;-68
2023/11/22 03:54:53;;;;;;;;;;;;;;;-144.99;100.00;52709.00;5012342;28;19940;-70
2023/11/22 03:57:19;;;;;;;;;;;;;;;-144.99;100.00;52700.84;5004670;28;20351;-70
2023/11/22 03:59:46;;;;;;;;;;;;;;;-144.99;100.00;52690.66;5010589;28;19933;-70
2023/11/22 04:02:12;;;;;;;;;;;;;;;-144.99;100.00;52706.97;5005156;28;20368;-71
2023/11/22 04:04:40;;;;;;;;;;;;;;;-144.99;100.00;52713.09;5015559;28;19925;-71
2023/11/22 04:07:08;;;;;;;;;;;;;;;-144.99;100.00;52725.31;5004690;28;19929;-71
2023/11/22 04:09:35;;;;;;;;;;;;;;;-144.99;100.00;52690.66;5015922;28;19929;-72
2023/11/22 04:12:01;;;;;;;;;;;;;;;-144.99;100.00;52704.94;5009781;28;19973;-70
2023/11/22 04:14:28;;;;;;;;;;;;;;;-144.99;100.00;52698.81;5016349;28;20382;-70
2023/11/22 04:16:54;;;;;;;;;;;;;;;-144.99;100.00;52753.84;5007279;28;20371;-68
2023/11/22 04:19:21;;;;;;;;;;;;;;;-144.99;100.00;52753.84;5012327;28;20024;-71
2023/11/22 04:21:47;;;;;;;;;;;;;;;-144.99;100.00;52717.16;5011673;28;20391;-69
2023/11/22 04:24:15;;;;;;;;;;;;;;;-144.99;100.00;52688.63;5008836;28;20363;-69
2023/11/22 04:26:42;;;;;;;;;;;;;;;-144.99;100.00;52696.78;5012059;28;20020;-70
2023/11/22 04:29:08;;;;;;;;;;;;;;;-144.99;100.00;52680.47;5019433;28;19925;-68
2023/11/22 04:31:35;;;;;;;;;;;;;;;-144.99;100.00;52696.78;5012768;28;20485;-67
2023/11/22 04:34:02;;;;;;;;;;;;;;;-144.99;100.00;52688.63;5017631;28;20008;-66
2023/11/22 04:36:29;;;;;;;;;;;;;;;-144.99;100.00;52702.88;5017339;28;19956;-65
2023/11/22 04:38:55;;;;;;;;;;;;;;;-144.99;100.00;52676.38;5007569;28;19932;-65
2023/11/22 04:41:25;;;;;;;;;;;;;;;-144.99;100.00;52719.19;5019755;28;19926;-65
2023/11/22 04:43:51;;;;;;;;;;;;;;;-144.99;100.00;52721.22;5013130;28;19929;-65
2023/11/22 04:46:17;;;;;;;;;;;;;;;-144.99;100.00;52717.16;5009135;28;20546;-63
2023/11/22 04:48:44;;;;;;;;;;;;;;;-144.99;100.00;52713.09;5003379;28;19968;-63
2023/11/22 04:51:11;;;;;;;;;;;;;;;-144.99;100.00;52700.84;5002984;28;19941;-63
2023/11/22 04:53:38;;;;;;;;;;;;;;;-144.99;100.00;52717.16;5002295;28;20403;-63
2023/11/22 04:56:05;;;;;;;;;;;;;;;-144.99;100.00;52682.50;5008243;28;20422;-63
2023/11/22 04:58:34;;;;;;;;;;;;;;;-144.99;100.00;52676.38;5010812;28;20364;-62
2023/11/22 05:01:01;;;;;;;;;;;;;;;-144.99;100.00;52682.50;5008554;28;20379;-65
2023/11/22 05:03:28;;;;;;;;;;;;;;;-144.99;100.00;52684.53;5014294;28;19968;-68
2023/11/22 05:05:54;;;;;;;;;;;;;;;-144.99;100.00;52713.09;5014078;28;20012;-68
2023/11/22 05:08:20;;;;;;;;;;;;;;;-144.99;100.00;52721.22;5005766;28;20024;-68
2023/11/22 05:10:47;;;;;;;;;;;;;;;-144.99;100.00;52656.00;5008955;28;20359;-68
2023/11/22 05:13:13;;;;;;;;;;;;;;;-144.99;100.00;52725.31;5011840;28;19934;-68
2023/11/22 05:15:41;;;;;;;;;;;;;;;-144.99;100.00;52709.00;5011246;28;20013;-67
2023/11/22 05:18:08;;;;;;;;;;;;;;;-144.99;100.00;52664.16;5009774;28;19969;-75
2023/11/22 05:20:34;;;;;;;;;;;;;;;-144.99;100.00;52688.63;5011435;28;19926;-67
2023/11/22 05:23:01;;;;;;;;;;;;;;;-144.99;100.00;52733.47;5011714;28;20378;-69
2023/11/22 05:25:27;;;;;;;;;;;;;;;-144.99;100.00;52680.47;5001561;28;19952;-70
2023/11/22 05:27:54;;;;;;;;;;;;;;;-144.99;100.00;52682.50;5011990;28;20418;-71
2023/11/22 05:30:21;;;;;;;;;;;;;;;-144.99;100.00;52688.63;5006602;28;19973;-71
2023/11/22 05:32:49;;;;;;;;;;;;;;;-144.99;100.00;52668.22;5003328;28;19939;-71
2023/11/22 05:35:16;;;;;;;;;;;;;;;-144.99;100.00;52668.22;5010441;28;19925;-70
2023/11/22 05:37:42;;;;;;;;;;;;;;;-144.99;100.00;52686.59;5006506;28;20008;-70
2023/11/22 05:40:10;;;;;;;;;;;;;;;-144.99;100.00;52717.16;5009608;28;19965;-70
2023/11/22 05:42:37;;;;;;;;;;;;;;;-144.99;100.00;52688.63;5002759;28;19953;-70
2023/11/22 05:45:05;;;;;;;;;;;;;;;-144.99;100.00;52715.13;4999072;28;19925;-70
2023/11/22 05:47:31;;;;;;;;;;;;;;;-144.99;100.00;52672.31;5009100;28;19945;-70
2023/11/22 05:49:59;;;;;;;;;;;;;;;-144.99;100.00;52749.78;5004951;28;20016;-70
2023/11/22 05:52:25;;;;;;;;;;;;;;;-144.99;100.00;52664.16;5009346;28;19925;-71
2023/11/22 05:54:52;;;;;;;;;;;;;;;-144.99;100.00;52696.78;5004012;28;20380;-69
2023/11/22 05:57:19;;;;;;;;;;;;;;;-144.99;100.00;52692.69;5010779;28;20042;-70
2023/11/22 05:59:46;;;;;;;;;;;;;;;-144.99;100.00;52704.94;5008827;28;20406;-62
2023/11/22 06:02:13;;;;;;;;;;;;;;;-144.99;100.00;52664.16;5005719;28;20534;-68
2023/11/22 06:04:39;;;;;;;;;;;;;;;-144.99;100.00;52741.63;5004614;28;20020;-67
2023/11/22 06:07:07;;;;;;;;;;;;;;;-144.99;100.00;52684.53;5013176;28;19925;-67
2023/11/22 06:09:36;;;;;;;;;;;;;;;-144.99;100.00;52700.84;4992334;28;20111;-67
2023/11/22 06:12:02;;;;;;;;;;;;;;;-144.99;100.00;52688.63;5004995;28;20287;-67
2023/11/22 06:14:28;;;;;;;;;;;;;;;-144.99;100.00;52704.94;5015247;28;20347;-67
2023/11/22 06:16:55;;;;;;;;;;;;;;;-144.99;100.00;52700.84;5008505;28;20324;-70
2023/11/22 06:19:21;;;;;;;;;;;;;;;-144.99;100.00;52643.78;5007977;28;20288;-69
2023/11/22 06:21:48;;;;;;;;;;;;;;;-144.99;100.00;52696.78;5004392;28;20379;-70
2023/11/22 06:24:20;;;;;;;;;;;;;;;-144.99;100.00;52698.81;4451070;28;10000864;-70
2023/11/22 06:26:47;;;;;;;;;;;;;;;-144.99;100.00;52680.47;5001887;28;19929;-70
2023/11/22 06:29:14;;;;;;;;;;;;;;;-144.99;100.00;52696.78;5005224;28;20520;-70
2023/11/22 06:31:41;;;;;;;;;;;;;;;-144.99;100.00;52676.38;5013159;28;19961;-69
2023/11/22 06:34:07;;;;;;;;;;;;;;;-144.99;100.00;52668.22;5004992;28;19964;-70
2023/11/22 06:36:34;;;;;;;;;;;;;;;-144.99;100.00;52700.84;5004676;28;19929;-69
2023/11/22 06:39:00;;;;;;;;;;;;;;;-144.99;100.00;52717.16;5013977;28;19983;-70
2023/11/22 06:41:28;;;;;;;;;;;;;;;-144.99;100.00;52680.47;5011969;28;20016;-70
2023/11/22 06:43:55;;;;;;;;;;;;;;;-144.99;100.00;52684.53;5004738;28;20007;-70
2023/11/22 06:46:22;;;;;;;;;;;;;;;-144.99;100.00;52670.28;5004535;28;20032;-70
2023/11/22 06:48:49;;;;;;;;;;;;;;;-144.99;100.00;52684.53;5002892;28;20311;-70
2023/11/22 06:51:18;;;;;;;;;;;;;;;-144.99;100.00;52684.53;5014701;28;19978;-70
2023/11/22 06:53:44;;;;;;;;;;;;;;;-144.99;100.00;52725.31;5010402;28;19933;-70
2023/11/22 06:56:11;;;;;;;;;;;;;;;-144.99;100.00;52696.78;5002685;28;19940;-70
2023/11/22 06:58:39;;;;;;;;;;;;;;;-144.99;100.00;52692.69;5009301;28;19929;-70
2023/11/22 07:01:07;;;;;;;;;;;;;;;-144.99;100.00;52692.69;5015927;28;20375;-70
2023/11/22 07:03:33;;;;;;;;;;;;;;;-144.99;100.00;52670.28;5014629;28;19944;-70
2023/11/22 07:06:00;;;;;;;;;;;;;;;-144.99;100.00;52717.16;5010036;28;20014;-69
2023/11/22 07:08:28;;;;;;;;;;;;;;;-144.99;100.00;52656.00;5006477;28;20448;-70
2023/11/22 07:10:56;;;;;;;;;;;;;;;-144.99;100.00;52696.78;5006644;28;19941;-70
2023/11/22 07:13:24;;;;;;;;;;;;;;;-144.99;100.00;52709.00;5014333;28;19929;-70
2023/11/22 07:15:52;;;;;;;;;;;;;;;-144.99;100.00;52656.00;5010541;28;19961;-70
2023/11/22 07:18:18;;;;;;;;;;;;;;;-144.99;100.00;52713.09;5002958;28;19952;-70
2023/11/22 07:20:45;;;;;;;;;;;;;;;-144.99;100.00;52668.22;5005026;28;19933;-71
2023/11/22 07:23:13;;;;;;;;;;;;;;;-144.99;100.00;52668.22;5001368;28;20079;-70
2023/11/22 07:25:39;;;;;;;;;;;;;;;-144.99;100.00;52709.00;5015581;28;20375;-70
2023/11/22 07:28:06;;;;;;;;;;;;;;;-144.99;100.00;52680.47;5007462;28;20008;-70
2023/11/22 07:30:33;;;;;;;;;;;;;;;-144.99;100.00;52680.47;5005329;28;19980;-69
2023/11/22 07:33:01;;;;;;;;;;;;;;;-144.99;100.00;52664.16;4999480;28;19930;-69
2023/11/22 07:35:28;;;;;;;;;;;;;;;-144.99;100.00;52684.53;5008338;28;20064;-70
2023/11/22 07:37:54;;;;;;;;;;;;;;;-144.99;100.00;52696.78;5009308;28;20028;-70
2023/11/22 07:40:22;;;;;;;;;;;;;;;-144.99;100.00;52668.22;5010914;28;19925;-70
2023/11/22 07:42:49;;;;;;;;;;;;;;;-144.99;100.00;52672.31;5009396;28;19929;-70
2023/11/22 07:45:16;;;;;;;;;;;;;;;-144.99;100.00;52676.38;5008887;28;20415;-70
2023/11/22 07:47:43;;;;;;;;;;;;;;;-144.99;100.00;52664.16;5016114;28;19929;-69
2023/11/22 07:50:12;;;;;;;;;;;;;;;-144.99;100.00;52672.31;5013765;28;19979;-69
2023/11/22 07:52:40;;;;;;;;;;;;;;;-144.99;100.00;52692.69;5009820;28;19957;-69
2023/11/22 07:55:07;;;;;;;;;;;;;;;-144.99;100.00;52674.34;5005106;28;19930;-69
2023/11/22 07:57:34;;;;;;;;;;;;;;;-144.99;100.00;52635.63;5009192;28;19959;-70
2023/11/22 08:00:01;;;;;;;;;;;;;;;-144.99;100.00;52688.63;5007483;28;20246;-69
2023/11/22 08:02:28;;;;;;;;;;;;;;;-144.99;100.00;52709.00;5001994;28;19929;-70
2023/11/22 08:04:55;;;;;;;;;;;;;;;-144.99;100.00;52678.44;5008916;28;19925;-70
2023/11/22 08:07:23;;;;;;;;;;;;;;;-144.99;100.00;52702.88;5004280;28;19944;-70
2023/11/22 08:09:50;;;;;;;;;;;;;;;-144.99;100.00;52674.34;5009319;28;19929;-70
2023/11/22 08:12:16;;;;;;;;;;;;;;;-144.99;100.00;52684.53;5008535;28;19929;-70
2023/11/22 08:14:44;;;;;;;;;;;;;;;-144.99;100.00;52709.00;5009209;28;20025;-70
2023/11/22 08:17:11;;;;;;;;;;;;;;;-144.99;100.00;52690.66;5013992;28;20036;-70
2023/11/22 08:19:39;;;;;;;;;;;;;;;-144.99;100.00;52680.47;5005350;28;20427;-69
2023/11/22 08:22:05;;;;;;;;;;;;;;;-144.99;100.00;52676.38;5011428;28;19933;-69
2023/11/22 08:24:33;;;;;;;;;;;;;;;-144.99;100.00;52660.09;5009455;28;19992;-69
2023/11/22 08:27:00;;;;;;;;;;;;;;;-144.99;100.00;52672.31;5001633;28;20350;-70
2023/11/22 08:29:26;;;;;;;;;;;;;;;-144.99;100.00;52656.00;5012184;28;19968;-70
2023/11/22 08:31:53;;;;;;;;;;;;;;;-144.99;100.00;52709.00;5001672;28;19929;-70
2023/11/22 08:34:19;;;;;;;;;;;;;;;-144.99;100.00;52674.34;5020046;28;20330;-70
2023/11/22 08:36:46;;;;;;;;;;;;;;;-144.99;100.00;52680.47;4999888;28;19952;-70
2023/11/22 08:39:12;;;;;;;;;;;;;;;-144.99;100.00;52672.31;4990850;28;19929;-69
2023/11/22 08:41:40;;;;;;;;;;;;;;;-144.99;100.00;52700.84;5002838;28;19925;-70
2023/11/22 08:44:07;;;;;;;;;;;;;;;-144.99;100.00;52662.13;5002586;28;19953;-70
2023/11/22 08:46:33;;;;;;;;;;;;;;;-144.99;100.00;52660.09;5004797;28;19996;-71
2023/11/22 08:49:00;;;;;;;;;;;;;;;-144.99;100.00;52706.97;5001629;28;19964;-71
2023/11/22 08:51:26;;;;;;;;;;;;;;;-144.99;100.00;52660.09;5004572;28;20469;-71
2023/11/22 08:53:53;;;;;;;;;;;;;;;-144.99;100.00;52668.22;5003854;28;20015;-71
2023/11/22 08:56:20;;;;;;;;;;;;;;;-144.99;100.00;52688.63;5009854;28;20035;-72
2023/11/22 08:58:48;;;;;;;;;;;;;;;-144.99;100.00;52651.94;5014520;28;20003;-72
2023/11/22 09:01:15;;;;;;;;;;;;;;;-144.99;100.00;52664.16;5000635;28;19953;-72
2023/11/22 09:03:43;;;;;;;;;;;;;;;-144.99;100.00;52688.63;5006798;28;19933;-72
2023/11/22 09:06:09;;;;;;;;;;;;;;;-144.99;100.00;52684.53;5010251;28;19979;-71
2023/11/22 09:08:36;;;;;;;;;;;;;;;-144.99;100.00;52647.84;5010075;28;19925;-72
2023/11/22 09:11:05;;;;;;;;;;;;;;;-144.99;100.00;52700.84;5000932;28;19925;-72
2023/11/22 09:13:32;;;;;;;;;;;;;;;-144.99;100.00;52676.38;5011540;28;19991;-72
2023/11/22 09:16:00;;;;;;;;;;;;;;;-144.99;100.00;52680.47;5002588;28;20349;-72
2023/11/22 09:18:26;;;;;;;;;;;;;;;-144.99;100.00;52668.22;5004289;28;20387;-71
2023/11/22 09:20:53;;;;;;;;;;;;;;;-144.99;100.00;52692.69;5007481;28;20316;-71
2023/11/22 09:23:20;;;;;;;;;;;;;;;-144.99;100.00;52668.22;5010755;28;19930;-71
2023/11/22 09:25:46;;;;;;;;;;;;;;;-144.99;100.00;52660.09;5003167;28;20017;-71
2023/11/22 09:28:15;;;;;;;;;;;;;;;-144.99;100.00;52676.38;5005839;28;19932;-71
2023/11/22 09:30:42;;;;;;;;;;;;;;;-144.99;100.00;52696.78;5009279;28;20454;-72
2023/11/22 09:33:12;;;;;;;;;;;;;;;-144.99;100.00;52672.31;5012251;28;19936;-71
2023/11/22 09:35:39;;;;;;;;;;;;;;;-144.99;100.00;52676.38;4998696;28;19976;-72
2023/11/22 09:38:09;;;;;;;;;;;;;;;-144.99;100.00;52674.34;5017845;28;20012;-70
2023/11/22 09:40:36;;;;;;;;;;;;;;;-144.99;100.00;52660.09;5003079;28;19935;-72
2023/11/22 09:43:03;;;;;;;;;;;;;;;-144.99;100.00;52639.69;5004797;28;20152;-71
2023/11/22 09:45:30;;;;;;;;;;;;;;;-144.99;100.00;52676.38;5005725;28;19961;-72
2023/11/22 09:47:57;;;;;;;;;;;;;;;-144.99;100.00;52686.59;5006562;28;19929;-72
2023/11/22 09:50:28;;;;;;;;;;;;;;;-144.99;100.00;52684.53;4994160;28;19933;-71
2023/11/22 09:52:56;;;;;;;;;;;;;;;-144.99;100.00;52649.88;5003654;28;20042;-70
2023/11/22 09:55:28;;;;;;;;;;;;;;;-144.99;100.00;52639.69;4994472;28;20012;-71
2023/11/22 09:57:56;;;;;;;;;;;;;;;-144.99;100.00;52660.09;4999569;28;20367;-71
2023/11/22 10:00:24;;;;;;;;;;;;;;;-144.99;100.00;52649.88;4987274;28;19930;-70
2023/11/22 10:02:51;;;;;;;;;;;;;;;-144.99;100.00;52709.00;5008211;28;19933;-70
2023/11/22 10:05:19;;;;;;;;;;;;;;;-144.99;100.00;52651.94;5009208;28;19980;-71
2023/11/22 10:07:48;;;;;;;;;;;;;;;-144.99;100.00;52692.69;5005551;28;20226;-70
2023/11/22 10:10:15;;;;;;;;;;;;;;;-144.99;100.00;52647.84;5010329;28;20033;-70
2023/11/22 10:12:43;;;;;;;;;;;;;;;-144.99;100.00;52647.84;5008593;28;19972;-71
2023/11/22 10:15:13;;;;;;;;;;;;;;;-144.99;100.00;52643.78;5007284;28;20378;-71
2023/11/22 10:17:40;;;;;;;;;;;;;;;-144.99;100.00;52660.09;5000503;28;19925;-71
2023/11/22 10:20:10;;;;;;;;;;;;;;;-144.99;100.00;52664.16;5012406;28;19930;-71
2023/11/22 10:22:45;;;;;;;;;;;;;;;-144.99;100.00;52643.78;5010314;28;20039;-71
2023/11/22 10:25:13;;;;;;;;;;;;;;;-144.99;100.00;52680.47;5000259;28;19929;-71
2023/11/22 10:27:40;;;;;;;;;;;;;;;-144.99;100.00;52670.28;5006106;28;19932;-71
2023/11/22 10:30:09;;;;;;;;;;;;;;;-144.99;100.00;52658.03;5006022;28;20024;-71
2023/11/22 10:32:37;;;;;;;;;;;;;;;-144.99;100.00;52680.47;5006532;28;19937;-71
2023/11/22 10:35:05;;;;;;;;;;;;;;;-144.99;100.00;52643.78;5010521;28;20037;-71
2023/11/22 10:37:31;;;;;;;;;;;;;;;-144.99;100.00;52670.28;5004527;28;19940;-72
2023/11/22 10:39:58;;;;;;;;;;;;;;;-144.99;100.00;52627.47;5001282;28;20344;-71
2023/11/22 10:42:27;;;;;;;;;;;;;;;-144.99;100.00;52623.38;5010720;28;20019;-71
2023/11/22 10:44:56;;;;;;;;;;;;;;;-144.99;100.00;52647.84;5011383;28;19933;-71
2023/11/22 10:47:23;;;;;;;;;;;;;;;-144.99;100.00;52631.53;5007124;28;19933;-71
2023/11/22 10:49:50;;;;;;;;;;;;;;;-144.99;100.00;52631.53;5010224;28;20391;-71
2023/11/22 10:52:19;;;;;;;;;;;;;;;-144.99;100.00;52668.22;5007375;28;20273;-71
2023/11/22 10:54:50;;;;;;;;;;;;;;;-144.99;100.00;52668.22;5007060;28;19936;-71
2023/11/22 10:57:20;;;;;;;;;;;;;;;-144.99;100.00;52690.66;5005191;28;19953;-71
2023/11/22 10:59:52;;;;;;;;;;;;;;;-144.99;100.00;52603.00;5002341;28;19925;-71
2023/11/22 11:02:19;;;;;;;;;;;;;;;-144.99;100.00;52639.69;5004315;28;20044;-71
2023/11/22 11:04:51;;;;;;;;;;;;;;;-144.99;100.00;52668.22;5006531;28;20024;-71
2023/11/22 11:07:22;;;;;;;;;;;;;;;-144.99;100.00;52668.22;5008060;28;20860;-71
2023/11/22 11:09:50;;;;;;;;;;;;;;;-144.99;100.00;52662.13;4996265;28;20441;-71
2023/11/22 11:12:17;;;;;;;;;;;;;;;-144.99;100.00;52651.94;4997746;28;20283;-70
2023/11/22 11:14:46;;;;;;;;;;;;;;;-144.99;100.00;52607.09;5002928;28;19929;-70
2023/11/22 11:17:15;;;;;;;;;;;;;;;-144.99;98.67;52656.00;5005677;28;19965;-70
2023/11/22 11:19:42;;;;;;;;;;;;;;;-144.99;96.96;52598.94;5006275;28;20020;-71
2023/11/22 11:22:09;;;;;;;;;;;;;;;-144.99;95.40;52639.69;4996128;28;20027;-71
2023/11/22 11:24:39;;;;;;;;;;;;;;;-144.99;94.49;52586.69;5005055;28;20349;-70
2023/11/22 11:27:07;;;;;;;;;;;;;;;-144.99;93.31;52627.47;5004562;28;20007;-72
2023/11/22 11:29:33;;;;;;;;;;;;;;;-144.99;91.75;52619.31;5008665;28;20000;-72
2023/11/22 11:32:01;;;;;;;;;;;;;;;-144.99;91.04;52609.13;5011158;28;19973;-71
2023/11/22 11:34:29;;;;;;;;;;;;;;;-144.99;89.98;52596.88;5003022;28;19930;-72
2023/11/22 11:36:55;;;;;;;;;;;;;;;-144.99;89.15;52635.63;5006322;28;19940;-71
2023/11/22 11:39:29;;;;;;;;;;;;;;;-144.99;88.05;52611.16;5001321;28;19968;-71
2023/11/22 11:42:08;;;;;;;;;;;;;;;-144.99;87.72;52611.16;4999024;28;19933;-72
2023/11/22 11:44:34;;;;;;;;;;;;;;;-144.99;89.53;52617.28;5007543;28;19932;-70
2023/11/22 11:47:09;;;;;;;;;;;;;;;-144.99;89.71;52627.47;5016654;28;20161;-71
2023/11/22 11:49:39;;;;;;;;;;;;;;;-144.99;88.60;52635.63;5012975;28;19975;-70
2023/11/22 11:52:07;;;;;;;;;;;;;;;-144.99;88.75;52680.47;5007763;28;19940;-71
2023/11/22 11:54:34;;;;;;;;;;;;;;;-144.99;88.86;52656.00;5012614;28;20166;-69
2023/11/22 11:57:00;;;;;;;;;;;;;;;-144.99;87.94;52649.88;5010804;28;20311;-72
2023/11/22 11:59:27;;;;;;;;;;;;;;;-144.99;87.77;52615.25;5013661;28;19929;-69
2023/11/22 12:01:55;;;;;;;;;;;;;;;-144.99;88.02;52684.53;4995820;28;20396;-71
2023/11/22 12:04:23;;;;;;;;;;;;;;;-144.99;87.40;52651.94;5016978;28;19929;-70
2023/11/22 12:06:51;;;;;;;;;;;;;;;-144.99;87.49;52660.09;5006818;28;19992;-70
2023/11/22 12:09:24;;;;;;;;;;;;;;;-144.99;87.13;52627.47;5004803;28;19925;-70
2023/11/22 12:11:50;;;;;;;;;;;;;;;-144.99;86.67;52621.34;5016383;28;19925;-70
2023/11/22 12:14:17;;;;;;;;;;;;;;;-144.99;86.74;52660.09;5013426;28;20298;-70
2023/11/22 12:16:47;;;;;;;;;;;;;;;-144.99;86.01;52598.94;5006156;28;20296;-70
2023/11/22 12:19:22;;;;;;;;;;;;;;;-144.99;84.68;52643.78;5013341;28;19933;-70